Time;durP1;ratioP1;P1;durP2;ratioP2;P2;SDS_P1;SDS_P2;PMS_P1;PMS_P2;Temp;Humidity;BMP_temperature;BMP_pressure;BME280_temperature;BME280_humidity;BME280_pressure;Samples;Min_cycle;Max_cycle;Signal;HPM_P1;HPM_P2
2023/11/13 00:04:19;;;;;;;15.03;9.40;;;;;;;5.98;100.00;100000.34;5114038;55;1142884;-72
2023/11/13 00:09:25;;;;;;;16.80;11.17;;;;;;;5.96;100.00;100007.95;5141780;55;1140726;-71
2023/11/13 00:14:31;;;;;;;16.83;9.90;;;;;;;5.95;100.00;100009.77;5134093;55;1143183;-72
2023/11/13 00:19:37;;;;;;;18.23;9.47;;;;;;;5.93;100.00;100006.40;5152116;55;1140760;-73
2023/11/13 00:24:43;;;;;;;16.97;9.93;;;;;;;5.92;100.00;100015.21;5141789;55;1140872;-71
2023/11/13 00:29:48;;;;;;;12.33;8.37;;;;;;;5.93;100.00;100020.83;5149860;55;1141107;-72
2023/11/13 00:34:54;;;;;;;15.18;8.43;;;;;;;5.92;100.00;100024.87;5132627;55;1140933;-71
2023/11/13 00:39:59;;;;;;;12.20;8.17;;;;;;;5.92;100.00;100034.05;5124062;55;1140862;-72
2023/11/13 00:45:06;;;;;;;14.93;9.27;;;;;;;5.92;100.00;100034.05;5132616;55;1140902;-73
2023/11/13 00:50:12;;;;;;;13.70;9.50;;;;;;;5.88;100.00;100029.91;5153915;55;1140589;-73
2023/11/13 00:55:18;;;;;;;16.00;8.10;;;;;;;5.85;100.00;100028.80;5133878;55;1141055;-71
2023/11/13 01:00:24;;;;;;;12.17;8.00;;;;;;;5.81;100.00;100024.20;5133369;55;1140567;-74
2023/11/13 01:05:30;;;;;;;14.00;8.33;;;;;;;5.82;100.00;100044.27;5162228;55;1140931;-72
2023/11/13 01:10:36;;;;;;;9.40;7.27;;;;;;;5.81;100.00;100039.95;5132566;56;1151823;-72
2023/11/13 01:15:43;;;;;;;14.28;7.92;;;;;;;5.79;100.00;100032.68;5029033;57;1143182;-73
2023/11/13 01:20:49;;;;;;;13.58;7.87;;;;;;;5.79;100.00;100037.93;5029383;57;1140865;-73
2023/11/13 01:25:55;;;;;;;13.15;6.65;;;;;;;5.76;100.00;100039.44;5048169;56;1140969;-72
2023/11/13 01:31:00;;;;;;;7.80;5.87;;;;;;;5.79;100.00;100041.02;5044483;56;1141172;-71
2023/11/13 01:36:06;;;;;;;11.27;6.67;;;;;;;5.81;100.00;100038.64;5043827;56;1138773;-74
2023/11/13 01:41:12;;;;;;;10.70;6.50;;;;;;;5.82;100.00;100039.48;5022617;56;1140953;-70
2023/11/13 01:46:18;;;;;;;9.37;5.67;;;;;;;5.80;100.00;100046.17;5010053;58;1140941;-73
2023/11/13 01:51:26;;;;;;;10.93;6.43;;;;;;;5.77;100.00;100051.61;5010419;58;1138709;-74
2023/11/13 01:56:33;;;;;;;6.00;4.95;;;;;;;5.72;100.00;100049.75;5010151;57;1141009;-74
2023/11/13 02:01:40;;;;;;;9.17;5.73;;;;;;;5.70;100.00;100050.78;5112916;57;1138549;-74
2023/11/13 02:06:46;;;;;;;7.97;5.53;;;;;;;5.68;100.00;100050.88;5010693;57;1138642;-74
2023/11/13 02:11:52;;;;;;;9.05;5.40;;;;;;;5.67;100.00;100051.82;5010668;58;1138589;-74
2023/11/13 02:17:07;;;;;;;12.40;7.17;;;;;;;5.64;100.00;100042.86;5113687;57;1138792;-71
2023/11/13 02:22:12;;;;;;;9.28;5.67;;;;;;;5.63;100.00;100047.73;4982091;56;1140894;-73
2023/11/13 02:27:20;;;;;;;8.20;4.77;;;;;;;5.61;100.00;100043.05;5114193;56;1138765;-72
2023/11/13 02:32:25;;;;;;;9.60;4.23;;;;;;;5.57;100.00;100035.84;5020750;56;1138811;-71
2023/11/13 02:37:31;;;;;;;7.67;5.07;;;;;;;5.51;100.00;100038.85;4991528;57;1138663;-70
2023/11/13 02:42:37;;;;;;;9.47;5.03;;;;;;;5.51;100.00;100034.08;5025937;56;1138814;-73
2023/11/13 02:47:42;;;;;;;7.43;5.33;;;;;;;5.58;100.00;100041.47;4965995;58;1138674;-74
2023/11/13 02:52:48;;;;;;;5.25;4.67;;;;;;;5.69;100.00;100053.03;5063636;56;1138653;-73
2023/11/13 02:57:54;;;;;;;10.30;5.87;;;;;;;5.72;100.00;100041.88;4965914;58;1136951;-74
2023/11/13 03:02:59;;;;;;;6.80;5.93;;;;;;;5.69;100.00;100042.54;5058715;56;1138558;-70
2023/11/13 03:08:05;;;;;;;9.30;5.70;;;;;;;5.55;100.00;100048.22;5031834;57;1136809;-74
2023/11/13 03:13:11;;;;;;;8.77;6.07;;;;;;;5.41;100.00;100043.48;5044037;57;1136448;-70
2023/11/13 03:18:16;;;;;;;10.77;5.57;;;;;;;5.27;100.00;100046.52;4957449;57;1138701;-73
2023/11/13 03:23:22;;;;;;;7.17;4.97;;;;;;;5.14;100.00;100050.02;4985715;58;1140867;-72
2023/11/13 03:28:28;;;;;;;12.50;6.60;;;;;;;5.01;100.00;100048.62;4966521;57;1139035;-71
2023/11/13 03:33:33;;;;;;;6.37;5.13;;;;;;;4.96;100.00;100044.13;5044104;56;1140560;-70
2023/11/13 03:38:40;;;;;;;5.22;4.70;;;;;;;4.95;100.00;100047.69;5076634;56;1138864;-73
2023/11/13 03:43:45;;;;;;;9.23;4.97;;;;;;;4.89;100.00;100038.88;5025155;56;1136488;-71
2023/11/13 03:48:51;;;;;;;9.07;5.03;;;;;;;4.89;100.00;100042.34;5030116;57;1136709;-73
2023/11/13 03:53:56;;;;;;;10.82;4.87;;;;;;;4.84;100.00;100044.42;4990169;57;1136672;-70
2023/11/13 03:59:02;;;;;;;8.03;4.90;;;;;;;4.79;100.00;100039.92;5029563;56;1140950;-73
2023/11/13 04:04:09;;;;;;;5.40;4.70;;;;;;;4.74;100.00;100034.11;4919946;57;1138747;-72
2023/11/13 04:09:16;;;;;;;6.67;4.90;;;;;;;4.70;100.00;100036.58;5132815;56;1138879;-70
2023/11/13 04:14:22;;;;;;;10.28;6.80;;;;;;;4.70;100.00;100037.04;5047642;57;1138778;-71
2023/11/13 04:19:29;;;;;;;6.73;5.17;;;;;;;4.65;100.00;100048.25;4970724;57;1138711;-71
2023/11/13 04:24:35;;;;;;;6.57;5.07;;;;;;;4.56;100.00;100045.73;5070734;56;1136680;-73
2023/11/13 04:29:41;;;;;;;6.60;4.93;;;;;;;4.46;100.00;100049.82;4991018;57;1136770;-73
2023/11/13 04:34:46;;;;;;;7.25;5.00;;;;;;;4.37;100.00;100050.38;4971369;57;1136486;-72
2023/11/13 04:39:52;;;;;;;6.15;5.03;;;;;;;4.32;100.00;100051.11;4971361;57;1136583;-73
2023/11/13 04:44:57;;;;;;;10.28;5.20;;;;;;;4.31;100.00;100054.66;5070618;56;1138521;-74
2023/11/13 04:50:05;;;;;;;12.17;6.87;;;;;;;4.25;100.00;100053.27;5121640;56;1140891;-71
2023/11/13 04:55:12;;;;;;;8.53;5.77;;;;;;;4.25;100.00;100053.27;4987365;56;1140915;-73
2023/11/13 05:00:19;;;;;;;5.57;4.77;;;;;;;4.27;100.00;100059.72;4982566;58;1138439;-71
2023/11/13 05:05:26;;;;;;;6.67;4.17;;;;;;;4.29;100.00;100063.91;5049426;56;1138787;-71
2023/11/13 05:10:39;;;;;;;7.85;5.35;;;;;;;4.33;100.00;100064.58;5014983;57;1138485;-70
2023/11/13 05:15:39;;;;;;;9.93;6.10;;;;;;;4.34;100.00;100068.88;4898914;59;1136572;-73
2023/11/13 05:20:45;;;;;;;12.10;6.97;;;;;;;4.42;100.00;100070.59;4954247;57;1137106;-70
2023/11/13 05:25:51;;;;;;;23.30;8.60;;;;;;;4.42;100.00;100076.68;4981907;57;1138941;-73
2023/11/13 05:30:56;;;;;;;13.32;7.35;;;;;;;4.35;100.00;100075.34;4903648;58;1139154;-70
2023/11/13 05:36:02;;;;;;;20.67;8.93;;;;;;;4.25;100.00;100084.68;4968067;57;1139129;-73
2023/11/13 05:41:08;;;;;;;26.47;12.33;;;;;;;4.20;100.00;100098.48;4967808;57;1140939;-73
2023/11/13 05:46:16;;;;;;;18.13;12.57;;;;;;;4.17;100.00;100098.20;4961670;57;1140905;-70
2023/11/13 05:51:22;;;;;;;30.90;16.83;;;;;;;4.08;100.00;100102.66;4942341;57;1140849;-73
2023/11/13 05:56:27;;;;;;;32.40;18.60;;;;;;;4.03;100.00;100094.22;5043682;57;1140771;-74
2023/11/13 06:01:33;;;;;;;55.47;30.23;;;;;;;3.96;100.00;100095.52;5097233;56;1140962;-70
2023/11/13 06:06:38;;;;;;;19.90;11.43;;;;;;;3.93;100.00;100095.69;5208556;55;1140744;-70
2023/11/13 06:11:45;;;;;;;107.10;45.33;;;;;;;3.96;100.00;100109.91;5121008;56;1141016;-72
2023/11/13 06:16:51;;;;;;;80.23;42.50;;;;;;;4.03;100.00;100107.31;5220256;55;1145061;-71
2023/11/13 06:21:56;;;;;;;168.90;77.75;;;;;;;4.11;100.00;100116.05;5241082;55;1141123;-74
2023/11/13 06:27:03;;;;;;;90.23;45.73;;;;;;;4.18;100.00;100118.67;5219120;55;1143010;-72
2023/11/13 06:32:09;;;;;;;32.33;19.07;;;;;;;4.18;100.00;100119.52;5220074;55;1141046;-71
2023/11/13 06:37:15;;;;;;;18.43;11.30;;;;;;;4.16;100.00;100124.45;5240574;55;1140451;-72
2023/11/13 06:42:21;;;;;;;14.47;8.60;;;;;;;4.08;100.00;100131.91;5218988;55;1140654;-71
2023/11/13 06:47:26;;;;;;;11.20;6.90;;;;;;;4.07;100.00;100136.30;5161714;55;1138627;-74
2023/11/13 06:52:32;;;;;;;18.07;6.90;;;;;;;4.12;100.00;100132.97;5143962;55;1139130;-74
2023/11/13 06:57:37;;;;;;;11.87;6.70;;;;;;;4.12;100.00;100141.28;5151270;55;1138725;-70
2023/11/13 07:02:49;;;;;;;15.37;6.00;;;;;;;4.10;100.00;100143.14;5136509;55;1138848;-74
2023/11/13 07:07:51;;;;;;;5.45;4.70;;;;;;;4.12;100.00;100145.20;5034439;56;1138853;-73
2023/11/13 07:12:56;;;;;;;9.33;6.35;;;;;;;4.13;100.00;100151.63;5044225;56;1136841;-74
2023/11/13 07:18:02;;;;;;;10.57;5.53;;;;;;;4.18;100.00;100154.00;5079124;56;1136723;-75
2023/11/13 07:23:09;;;;;;;8.90;5.43;;;;;;;4.20;100.00;100158.22;5110526;55;1138822;-74
2023/11/13 07:28:19;;;;;;;10.90;5.50;;;;;;;4.25;100.00;100165.82;5115062;55;1138929;-75
2023/11/13 07:33:25;;;;;;;9.48;5.40;;;;;;;4.28;100.00;100162.19;5108703;55;1138882;-72
2023/11/13 07:38:31;;;;;;;10.20;4.80;;;;;;;4.31;100.00;100162.83;5057272;56;1136479;-75
2023/11/13 07:43:36;;;;;;;7.57;4.63;;;;;;;4.38;100.00;100158.10;5099340;56;1138835;-73
2023/11/13 07:48:42;;;;;;;11.53;4.83;;;;;;;4.43;100.00;100152.14;5015037;56;1136715;-71
2023/11/13 07:53:48;;;;;;;8.40;5.07;;;;;;;4.48;100.00;100143.53;5017537;56;1138725;-72
2023/11/13 07:58:57;;;;;;;9.18;6.00;;;;;;;4.54;100.00;100145.34;5053859;56;1138679;-74
2023/11/13 08:04:01;;;;;;;4.72;4.12;;;;;;;4.60;100.00;100138.87;5098533;57;1136417;-70
2023/11/13 08:09:08;;;;;;;8.23;5.30;;;;;;;4.68;100.00;100132.73;5113504;55;1138694;-73
2023/11/13 08:14:14;;;;;;;12.53;4.97;;;;;;;4.81;100.00;100126.30;5162330;55;1138864;-69
2023/11/13 08:19:20;;;;;;;9.97;6.07;;;;;;;4.95;100.00;100123.21;5142198;55;1141064;-73
2023/11/13 08:24:26;;;;;;;10.97;5.67;;;;;;;5.04;100.00;100122.30;5142313;55;1138637;-72
2023/11/13 08:29:32;;;;;;;9.45;5.90;;;;;;;5.05;100.00;100131.34;5140706;55;1140781;-71
2023/11/13 08:34:41;;;;;;;10.17;5.27;;;;;;;5.05;100.00;100129.19;5161447;55;1138816;-74
2023/11/13 08:39:47;;;;;;;9.07;5.30;;;;;;;5.10;100.00;100132.38;5138158;55;1150182;-72
2023/11/13 08:44:56;;;;;;;10.90;5.40;;;;;;;5.25;100.00;100134.91;5142619;55;1138379;-73
2023/11/13 08:50:01;;;;;;;7.50;4.90;;;;;;;5.44;100.00;100141.17;5162165;55;1140879;-73
2023/11/13 08:55:10;;;;;;;13.10;5.80;;;;;;;5.65;100.00;100148.98;5136035;55;1138831;-71
2023/11/13 09:00:20;;;;;;;11.03;5.90;;;;;;;5.74;100.00;100154.61;5146159;55;1140803;-71
2023/11/13 09:05:28;;;;;;;9.20;5.87;;;;;;;5.73;100.00;100155.55;5130703;56;1140955;-70
2023/11/13 09:10:34;;;;;;;7.87;4.90;;;;;;;5.74;100.00;100151.98;5132552;56;1138882;-70
2023/11/13 09:15:40;;;;;;;7.93;5.57;;;;;;;5.79;100.00;100151.23;4962255;57;1138670;-71
2023/11/13 09:20:46;;;;;;;11.63;5.45;;;;;;;5.88;100.00;100156.76;5022368;57;1138733;-75
2023/11/13 09:25:51;;;;;;;7.55;5.85;;;;;;;5.99;100.00;100163.46;5102378;57;1140799;-74
2023/11/13 09:30:57;;;;;;;5.95;4.92;;;;;;;6.15;100.00;100160.69;5029062;57;1138417;-74
2023/11/13 09:36:05;;;;;;;14.03;6.15;;;;;;;6.32;100.00;100170.09;4987926;57;1138864;-74
2023/11/13 09:41:10;;;;;;;7.80;5.57;;;;;;;6.40;100.00;100163.89;4897350;58;1140760;-74
2023/11/13 09:46:20;;;;;;;13.43;7.57;;;;;;;6.54;100.00;100144.58;5020329;57;1138735;-71
2023/11/13 09:51:28;;;;;;;19.43;10.33;;;;;;;6.70;100.00;100143.92;4959797;57;1140949;-73
2023/11/13 09:56:32;;;;;;;8.83;6.80;;;;;;;6.83;100.00;100146.08;5125795;55;1143568;-71
2023/11/13 10:01:39;;;;;;;16.33;9.00;;;;;;;6.90;100.00;100139.44;5125144;55;1138921;-74
2023/11/13 10:06:49;;;;;;;10.23;7.40;;;;;;;6.99;100.00;100144.09;5185580;55;1140917;-74
2023/11/13 10:11:55;;;;;;;14.90;6.87;;;;;;;7.02;100.00;100136.47;5094972;55;1140842;-71
2023/11/13 10:17:02;;;;;;;14.38;7.60;;;;;;;6.98;100.00;100134.52;5152619;56;1141051;-71
2023/11/13 10:22:16;;;;;;;14.07;7.23;;;;;;;7.03;100.00;100122.34;5132769;56;1140921;-74
2023/11/13 10:27:21;;;;;;;11.73;8.60;;;;;;;7.11;100.00;100129.72;5132480;56;1140925;-74
2023/11/13 10:32:32;;;;;;;15.17;9.37;;;;;;;7.19;100.00;100122.96;5131948;55;1140846;-71
2023/11/13 10:37:38;;;;;;;10.63;7.27;;;;;;;7.24;100.00;100122.17;5152336;56;1140857;-72
2023/11/13 10:42:48;;;;;;;9.87;7.10;;;;;;;7.27;100.00;100117.18;5132858;56;1140656;-72
2023/11/13 10:47:54;;;;;;;10.23;6.70;;;;;;;7.31;100.00;100110.29;5136789;55;1138830;-75
2023/11/13 10:53:01;;;;;;;15.55;6.78;;;;;;;7.35;100.00;100099.05;5131831;55;1140959;-72
2023/11/13 10:58:06;;;;;;;6.97;6.27;;;;;;;7.39;100.00;100088.69;4989554;57;1140963;-71
2023/11/13 11:03:14;;;;;;;8.93;5.40;;;;;;;7.60;100.00;100073.16;5106396;56;1138726;-73
2023/11/13 11:08:20;;;;;;;10.13;5.77;;;;;;;7.84;100.00;100075.31;5024979;56;1138666;-72
2023/11/13 11:13:26;;;;;;;6.30;5.10;;;;;;;8.08;100.00;100076.16;4954198;57;1140979;-72
2023/11/13 11:18:53;;;;;;;6.17;4.40;;;;;;;8.37;100.00;100070.52;4955256;57;1139087;-73
2023/11/13 11:24:11;;;;;;;6.33;4.20;;;;;;;8.61;100.00;100073.92;4974188;57;1138788;-75
2023/11/13 11:29:35;;;;;;;4.67;3.90;;;;;;;8.84;100.00;100073.48;4954542;57;1138892;-73
2023/11/13 11:34:44;;;;;;;6.03;3.83;;;;;;;9.11;100.00;100060.77;5102296;56;1138810;-72
2023/11/13 11:39:56;;;;;;;3.27;2.90;;;;;;;9.43;100.00;100062.17;5101715;56;1139015;-72
2023/11/13 11:45:07;;;;;;;4.67;3.47;;;;;;;9.70;100.00;100055.14;5148353;55;1138901;-72
2023/11/13 11:50:14;;;;;;;9.37;3.20;;;;;;;9.85;100.00;100044.64;5188621;55;1138893;-73
2023/11/13 11:55:22;;;;;;;5.53;3.20;;;;;;;10.08;100.00;100036.13;5178427;55;1139218;-72
2023/11/13 12:00:28;;;;;;;6.37;3.87;;;;;;;10.37;100.00;100033.74;5081882;56;1141034;-74
2023/11/13 12:05:33;;;;;;;4.27;3.77;;;;;;;10.55;100.00;100040.09;5125191;55;1140836;-73
2023/11/13 12:10:41;;;;;;;13.23;5.40;;;;;;;10.69;100.00;100038.10;5131689;55;1140708;-74
2023/11/13 12:15:48;;;;;;;2.50;2.30;;;;;;;10.64;100.00;100031.03;5130837;55;1142976;-72
2023/11/13 12:20:54;;;;;;;14.30;5.20;;;;;;;10.61;100.00;100026.84;5151308;55;1140733;-74
2023/11/13 12:25:59;;;;;;;4.35;2.80;;;;;;;10.66;100.00;100033.07;5056663;56;1142793;-74
2023/11/13 12:31:20;;;;;;;3.80;2.80;;;;;;;10.58;100.00;100039.84;5047488;56;1140886;-73
2023/11/13 12:36:29;;;;;;;3.73;2.30;;;;;;;10.68;100.00;100018.75;5046946;56;1140850;-73
2023/11/13 12:41:35;;;;;;;12.13;4.33;;;;;;;11.06;100.00;100021.19;5096601;55;1141127;-72
2023/11/13 12:46:48;;;;;;;3.60;2.40;;;;;;;11.53;100.00;100010.36;5131509;55;1142629;-71
2023/11/13 12:51:55;;;;;;;5.17;2.23;;;;;;;12.00;100.00;99999.95;5131711;55;1141067;-72
2023/11/13 12:57:02;;;;;;;15.95;4.97;;;;;;;12.28;100.00;99995.09;5151741;55;1138936;-76
2023/11/13 13:02:07;;;;;;;12.20;5.47;;;;;;;12.72;100.00;99996.22;5130754;55;1140957;-74
2023/11/13 13:07:13;;;;;;;10.07;2.23;;;;;;;12.95;100.00;99991.39;5030902;56;1140727;-74
2023/11/13 13:12:19;;;;;;;19.23;4.33;;;;;;;12.92;100.00;99981.06;5065674;56;1140751;-71
2023/11/13 13:17:26;;;;;;;18.90;5.80;;;;;;;13.02;100.00;99980.52;5052432;56;1140603;-75
2023/11/13 13:22:31;;;;;;;14.00;6.60;;;;;;;13.10;100.00;99972.66;5062109;56;1140694;-72
2023/11/13 13:27:37;;;;;;;21.60;8.33;;;;;;;13.32;100.00;99970.94;5074887;56;1140948;-73
2023/11/13 13:32:46;;;;;;;29.00;9.20;;;;;;;13.64;99.60;99960.29;5054916;56;1140836;-71
2023/11/13 13:37:53;;;;;;;11.43;3.80;;;;;;;13.98;99.46;99953.28;5072593;55;1138611;-73
2023/11/13 13:43:00;;;;;;;38.60;17.85;;;;;;;14.01;98.80;99950.31;5112522;56;1138450;-74
2023/11/13 13:48:06;;;;;;;24.43;7.70;;;;;;;13.39;84.02;99943.30;5047260;56;1140902;-73
2023/11/13 13:53:14;;;;;;;20.73;7.50;;;;;;;12.99;86.90;99938.33;4961188;57;1138615;-75
2023/11/13 13:58:22;;;;;;;5.97;4.23;;;;;;;13.16;86.94;99938.89;5041083;57;1138656;-73
2023/11/13 14:03:26;;;;;;;5.87;3.93;;;;;;;13.27;83.61;99945.83;5050595;56;1136854;-77
2023/11/13 14:08:35;;;;;;;6.40;3.97;;;;;;;11.60;88.00;99935.53;5050756;56;1136799;-73
2023/11/13 14:13:41;;;;;;;9.90;5.00;;;;;;;11.60;88.00;99935.53;5078036;57;1136864;-73
2023/11/13 14:18:46;;;;;;;7.97;4.07;;;;;;;11.01;90.45;99938.22;5018960;57;1136666;-72
2023/11/13 14:23:53;;;;;;;172.27;62.80;;;;;;;10.52;92.89;99926.68;4911438;57;1136863;-72
2023/11/13 14:28:58;;;;;;;91.07;35.77;;;;;;;10.29;96.72;99911.12;4897165;57;1143108;-71
2023/11/13 14:34:04;;;;;;;27.80;11.97;;;;;;;10.10;98.48;99916.61;4960729;57;1140745;-72
2023/11/13 14:39:10;;;;;;;58.50;25.32;;;;;;;9.96;100.00;99915.63;4916358;57;1140857;-75
2023/11/13 14:44:16;;;;;;;20.27;12.77;;;;;;;9.79;100.00;99913.09;5050875;56;1140561;-73
2023/11/13 14:49:21;;;;;;;17.50;8.23;;;;;;;9.58;100.00;99901.70;5043719;56;1140736;-73
2023/11/13 14:54:27;;;;;;;45.27;15.03;;;;;;;9.34;100.00;99891.83;5046708;56;1136829;-78
2023/11/13 14:59:32;;;;;;;38.75;9.93;;;;;;;9.10;100.00;99881.02;5070121;56;1138898;-74
2023/11/13 15:04:39;;;;;;;46.77;18.90;;;;;;;8.88;100.00;99877.59;5104867;56;1136729;-73
2023/11/13 15:09:45;;;;;;;37.60;15.30;;;;;;;8.66;100.00;99871.91;5090415;55;1138536;-75
2023/11/13 15:14:51;;;;;;;31.83;14.50;;;;;;;8.44;100.00;99865.70;5155721;55;1138911;-73
2023/11/13 15:19:56;;;;;;;35.05;14.43;;;;;;;8.24;100.00;99860.31;5157915;55;1138846;-72
2023/11/13 15:25:02;;;;;;;34.13;15.30;;;;;;;8.07;100.00;99853.24;5151652;55;1138818;-77
2023/11/13 15:30:11;;;;;;;60.55;26.30;;;;;;;7.94;100.00;99847.73;5125600;55;1138753;-71
2023/11/13 15:35:18;;;;;;;49.08;23.00;;;;;;;7.83;100.00;99843.27;5128799;56;1138980;-75
2023/11/13 15:40:23;;;;;;;143.30;58.40;;;;;;;7.76;100.00;99828.92;5102549;55;1141020;-73
2023/11/13 15:45:31;;;;;;;112.43;52.63;;;;;;;7.69;100.00;99822.44;5082686;54;1143038;-74
2023/11/13 15:50:37;;;;;;;115.00;46.17;;;;;;;7.52;100.00;99825.05;5110606;55;1140681;-72
2023/11/13 15:55:42;;;;;;;86.37;38.67;;;;;;;7.34;100.00;99819.84;5190459;55;1141080;-73
2023/11/13 16:00:48;;;;;;;59.53;24.80;;;;;;;7.22;100.00;99804.52;5126812;56;1138788;-75
2023/11/13 16:05:53;;;;;;;38.87;16.97;;;;;;;7.15;100.00;99811.21;5131708;56;1140974;-73
2023/11/13 16:10:59;;;;;;;51.08;19.77;;;;;;;7.10;100.00;99801.50;5118097;56;1140758;-71
2023/11/13 16:16:07;;;;;;;43.75;22.05;;;;;;;7.03;100.00;99789.75;5141857;55;1141026;-74
2023/11/13 16:21:17;;;;;;;103.57;43.57;;;;;;;6.93;100.00;99786.14;5205277;55;1138833;-72
2023/11/13 16:26:20;;;;;;;33.13;16.53;;;;;;;6.93;100.00;99786.14;5181650;55;1141070;-78
2023/11/13 16:31:25;;;;;;;221.83;87.87;;;;;;;6.87;100.00;99777.41;5118959;56;1138684;-76
2023/11/13 16:36:31;;;;;;;66.87;30.20;;;;;;;6.78;100.00;99761.83;5147232;55;1140874;-74
2023/11/13 16:41:37;;;;;;;51.20;21.63;;;;;;;6.59;100.00;99754.45;5136996;55;1140992;-76
2023/11/13 16:46:43;;;;;;;46.90;22.57;;;;;;;6.59;100.00;99754.45;5159836;55;1140823;-76
2023/11/13 16:51:49;;;;;;;62.73;30.33;;;;;;;6.53;100.00;99754.92;5151812;55;1138855;-73
2023/11/13 16:56:54;;;;;;;41.30;17.37;;;;;;;6.46;100.00;99749.73;5114101;55;1138884;-73
2023/11/13 17:02:00;;;;;;;38.30;17.07;;;;;;;6.37;100.00;99740.39;5067180;56;1144974;-77
2023/11/13 17:07:05;;;;;;;35.10;14.63;;;;;;;6.31;100.00;99728.53;5057189;56;1141228;-74
2023/11/13 17:12:11;;;;;;;45.88;19.57;;;;;;;6.23;100.00;99708.57;5043675;57;1138778;-73
2023/11/13 17:17:18;;;;;;;60.60;25.53;;;;;;;6.15;100.00;99697.30;5065239;57;1138839;-74
2023/11/13 17:22:23;;;;;;;38.73;16.10;;;;;;;6.07;100.00;99702.27;5071997;56;1138602;-77
2023/11/13 17:27:29;;;;;;;62.27;28.50;;;;;;;6.04;100.00;99682.80;5138269;55;1138841;-76
2023/11/13 17:32:38;;;;;;;31.10;13.93;;;;;;;5.95;100.00;99650.20;5197044;55;1138679;-73
2023/11/13 17:37:44;;;;;;;41.87;19.07;;;;;;;5.90;100.00;99637.03;5241368;55;1138871;-79
2023/11/13 17:42:50;;;;;;;103.47;44.40;;;;;;;5.89;100.00;99618.30;5220017;55;1138708;-74
2023/11/13 17:47:55;;;;;;;75.53;42.07;;;;;;;5.86;100.00;99621.11;5220729;55;1140957;-77
2023/11/13 17:53:01;;;;;;;504.12;275.60;;;;;;;5.85;100.00;99603.69;5241280;55;1138759;-72
2023/11/13 17:58:06;;;;;;;37.97;19.77;;;;;;;5.86;100.00;99621.95;5106623;55;1142954;-73
2023/11/13 18:03:12;;;;;;;358.17;154.00;;;;;;;5.87;100.00;99625.41;5137872;55;1138795;-74
2023/11/13 18:08:18;;;;;;;71.97;41.93;;;;;;;5.90;100.00;99627.37;5160643;55;1142914;-77
2023/11/13 18:13:25;;;;;;;35.77;16.60;;;;;;;5.93;100.00;99616.66;5168326;55;1138759;-73
2023/11/13 18:18:31;;;;;;;76.70;28.00;;;;;;;5.89;100.00;99603.87;5209015;55;1138755;-75
2023/11/13 18:23:36;;;;;;;27.37;12.00;;;;;;;5.83;100.00;99584.12;5133876;55;1139040;-71
2023/11/13 18:28:43;;;;;;;32.70;14.00;;;;;;;5.79;100.00;99559.08;5154123;56;1138876;-76
2023/11/13 18:33:49;;;;;;;22.53;11.57;;;;;;;5.80;100.00;99550.25;5134213;56;1138506;-76
2023/11/13 18:38:56;;;;;;;24.17;11.33;;;;;;;5.78;100.00;99518.05;5153558;56;1138724;-75
2023/11/13 18:44:01;;;;;;;16.37;9.53;;;;;;;5.78;100.00;99531.63;5154090;55;1138621;-72
2023/11/13 18:49:07;;;;;;;31.85;13.30;;;;;;;5.76;100.00;99504.20;5134604;55;1136724;-79
2023/11/13 18:54:12;;;;;;;39.80;17.73;;;;;;;5.73;100.00;99487.84;5134668;55;1138640;-76
2023/11/13 18:59:19;;;;;;;43.67;16.63;;;;;;;5.76;100.00;99500.27;5154415;56;1138634;-73
2023/11/13 19:04:26;;;;;;;26.43;11.50;;;;;;;5.80;100.00;99502.19;5160481;55;1138433;-73
2023/11/13 19:09:32;;;;;;;63.43;37.53;;;;;;;5.85;100.00;99476.42;5205480;54;1138442;-76
2023/11/13 19:14:38;;;;;;;33.63;20.80;;;;;;;5.87;100.00;99452.22;5167696;55;1138814;-75
2023/11/13 19:19:43;;;;;;;30.27;17.35;;;;;;;5.89;100.00;99427.58;5116828;57;1138528;-75
2023/11/13 19:24:49;;;;;;;26.57;13.83;;;;;;;5.92;100.00;99402.90;4913910;57;1139058;-73
2023/11/13 19:29:55;;;;;;;28.03;12.83;;;;;;;5.91;100.00;99376.30;4959535;57;1138515;-73
2023/11/13 19:35:00;;;;;;;23.80;11.23;;;;;;;5.92;100.00;99367.47;4999045;56;1148658;-74
2023/11/13 19:40:07;;;;;;;24.50;10.82;;;;;;;5.94;100.00;99353.76;4960996;57;1138980;-74
2023/11/13 19:45:13;;;;;;;17.32;9.25;;;;;;;5.98;100.00;99352.55;5079959;56;1138914;-74
2023/11/13 19:50:19;;;;;;;18.20;11.03;;;;;;;5.98;100.00;99346.82;5116344;56;1136604;-77
2023/11/13 19:55:25;;;;;;;25.87;11.40;;;;;;;5.99;100.00;99345.03;5100497;55;1138527;-74
2023/11/13 20:00:31;;;;;;;19.70;8.80;;;;;;;5.99;100.00;99335.38;5130157;55;1138842;-76
2023/11/13 20:05:36;;;;;;;20.65;10.65;;;;;;;6.00;100.00;99318.67;5100510;56;1136705;-72
2023/11/13 20:10:42;;;;;;;24.83;11.27;;;;;;;6.02;100.00;99323.81;5098690;56;1139096;-75
2023/11/13 20:15:48;;;;;;;16.73;8.87;;;;;;;6.03;100.00;99298.40;5104988;55;1138980;-73
2023/11/13 20:20:54;;;;;;;26.27;8.83;;;;;;;6.00;100.00;99285.03;5130111;55;1136551;-77
2023/11/13 20:26:00;;;;;;;26.70;13.67;;;;;;;5.98;100.00;99283.84;5136586;55;1146222;-77
2023/11/13 20:31:05;;;;;;;19.25;8.65;;;;;;;5.99;100.00;99272.86;5131894;55;1138492;-73
2023/11/13 20:36:11;;;;;;;24.75;11.10;;;;;;;5.94;100.00;99233.89;5032858;56;1136708;-74
2023/11/13 20:41:17;;;;;;;20.80;8.17;;;;;;;5.93;100.00;99193.33;5144829;55;1138855;-76
2023/11/13 20:46:23;;;;;;;23.25;10.28;;;;;;;5.88;100.00;99204.62;5158558;55;1136651;-74
2023/11/13 20:51:29;;;;;;;20.47;10.43;;;;;;;5.83;100.00;99228.59;5147965;54;1138742;-74
2023/11/13 20:56:36;;;;;;;27.30;11.68;;;;;;;5.79;100.00;99197.02;5151575;55;1138682;-76
2023/11/13 21:01:43;;;;;;;17.93;9.43;;;;;;;5.73;100.00;99195.34;5220220;54;1141089;-73
2023/11/13 21:06:49;;;;;;;64.92;29.80;;;;;;;5.70;100.00;99248.88;5214188;55;1138673;-71
2023/11/13 21:11:55;;;;;;;29.83;11.80;;;;;;;5.71;100.00;99292.52;5207840;55;1138591;-76
2023/11/13 21:17:01;;;;;;;22.43;10.50;;;;;;;5.71;100.00;99267.59;5228629;55;1138956;-74
2023/11/13 21:22:08;;;;;;;27.58;10.55;;;;;;;5.70;100.00;99215.25;5127900;55;1138869;-71
2023/11/13 21:27:14;;;;;;;32.23;14.50;;;;;;;5.65;100.00;99166.60;5148123;55;1140677;-76
2023/11/13 21:32:20;;;;;;;19.73;9.77;;;;;;;5.56;100.00;99137.66;5127134;56;1140932;-70
2023/11/13 21:37:26;;;;;;;22.97;10.23;;;;;;;5.40;100.00;99135.88;5121138;56;1138908;-73
2023/11/13 21:42:31;;;;;;;27.70;11.07;;;;;;;5.32;100.00;99126.48;5097064;56;1140857;-71
2023/11/13 21:47:37;;;;;;;39.33;16.00;;;;;;;5.27;100.00;99126.36;5061503;55;1140961;-72
2023/11/13 21:52:46;;;;;;;29.00;13.28;;;;;;;5.27;100.00;99139.47;5074633;56;1141234;-70
2023/11/13 21:57:52;;;;;;;27.83;11.83;;;;;;;5.22;100.00;99119.32;5129784;55;1140838;-73
2023/11/13 22:02:57;;;;;;;32.07;13.93;;;;;;;5.18;100.00;99103.97;5132891;55;1140864;-72
2023/11/13 22:08:03;;;;;;;31.23;12.37;;;;;;;5.13;100.00;99098.25;5140978;55;1138967;-73
2023/11/13 22:13:10;;;;;;;26.42;12.75;;;;;;;5.02;100.00;99033.58;5112771;55;1139068;-70
2023/11/13 22:18:15;;;;;;;22.52;10.93;;;;;;;4.94;100.00;98928.07;5142162;55;1141293;-72
2023/11/13 22:23:21;;;;;;;28.45;13.83;;;;;;;4.86;100.00;98941.44;5161990;55;1140840;-76
2023/11/13 22:28:26;;;;;;;29.07;12.50;;;;;;;4.87;100.00;98999.42;5141369;55;1140868;-75
2023/11/13 22:33:32;;;;;;;26.02;12.15;;;;;;;4.89;100.00;99019.75;5142323;55;1140981;-71
2023/11/13 22:38:37;;;;;;;23.60;13.40;;;;;;;4.84;100.00;98986.08;5162413;55;1140893;-73
2023/11/13 22:43:43;;;;;;;25.10;11.53;;;;;;;4.76;100.00;98966.19;5142467;55;1138909;-72
2023/11/13 22:48:48;;;;;;;25.73;13.90;;;;;;;4.77;100.00;98967.86;5141758;55;1138794;-72
2023/11/13 22:53:54;;;;;;;24.97;12.80;;;;;;;4.76;100.00;98963.57;5163070;55;1139025;-74
2023/11/13 22:59:02;;;;;;;31.70;13.85;;;;;;;4.75;100.00;98950.59;5092839;55;1139218;-73
2023/11/13 23:04:07;;;;;;;22.00;11.13;;;;;;;4.74;100.00;98986.42;5086496;55;1138835;-72